Time;durP1;ratioP1;P1;durP2;ratioP2;P2;SDS_P1;SDS_P2;PMS_P1;PMS_P2;Temp;Humidity;BMP_temperature;BMP_pressure;BME280_temperature;BME280_humidity;BME280_pressure;Samples;Min_cycle;Max_cycle;Signal;HPM_P1;HPM_P2
2023/06/09 00:01:35;;;;;;;;;;;14.70;99.90;;;;;;5090846;28;19915;-42
2023/06/09 00:04:08;;;;;;;;;;;14.70;99.90;;;;;;5091604;28;19952;-43
2023/06/09 00:06:35;;;;;;;;;;;14.70;99.90;;;;;;5091570;28;20370;-42
2023/06/09 00:09:04;;;;;;;;;;;14.70;99.90;;;;;;5091250;28;19915;-42
2023/06/09 00:11:29;;;;;;;;;;;14.70;99.90;;;;;;5091603;28;19908;-44
2023/06/09 00:13:55;;;;;;;;;;;14.60;99.90;;;;;;5091504;28;20290;-42
2023/06/09 00:16:23;;;;;;;;;;;14.60;99.90;;;;;;5090784;28;19920;-41
2023/06/09 00:18:52;;;;;;;;;;;14.60;99.90;;;;;;5091798;28;19958;-41
2023/06/09 00:21:18;;;;;;;;;;;14.60;99.90;;;;;;5091545;28;20007;-40
2023/06/09 00:23:44;;;;;;;;;;;14.60;99.90;;;;;;5090880;28;19915;-41
2023/06/09 00:26:11;;;;;;;;;;;14.50;99.90;;;;;;5091654;28;20374;-43
2023/06/09 00:28:37;;;;;;;;;;;14.50;99.90;;;;;;5091577;28;19909;-41
2023/06/09 00:31:02;;;;;;;;;;;14.50;99.90;;;;;;5090853;28;19916;-42
2023/06/09 00:33:28;;;;;;;;;;;14.50;99.90;;;;;;5090940;28;19955;-42
2023/06/09 00:35:53;;;;;;;;;;;14.40;99.90;;;;;;5091370;28;19920;-44
2023/06/09 00:38:19;;;;;;;;;;;14.40;99.90;;;;;;5090637;28;19909;-43
2023/06/09 00:40:44;;;;;;;;;;;14.40;99.90;;;;;;5091597;28;20393;-41
2023/06/09 00:43:09;;;;;;;;;;;14.40;99.90;;;;;;5092910;28;19912;-43
2023/06/09 00:45:35;;;;;;;;;;;14.40;99.90;;;;;;5094151;28;19908;-41
2023/06/09 00:48:01;;;;;;;;;;;14.40;99.90;;;;;;5095314;28;19965;-42
2023/06/09 00:50:26;;;;;;;;;;;14.40;99.90;;;;;;5075918;28;19908;-41
2023/06/09 00:52:52;;;;;;;;;;;14.40;99.90;;;;;;5094812;28;19915;-47
2023/06/09 00:55:18;;;;;;;;;;;14.40;99.90;;;;;;5094786;28;19927;-45
2023/06/09 00:57:44;;;;;;;;;;;14.40;99.90;;;;;;5094181;28;20527;-44
2023/06/09 01:00:13;;;;;;;;;;;14.30;99.90;;;;;;5094918;28;19951;-41
2023/06/09 01:02:38;;;;;;;;;;;14.40;99.90;;;;;;5094375;28;19919;-41
2023/06/09 01:05:05;;;;;;;;;;;14.30;99.90;;;;;;5094277;28;20417;-40
2023/06/09 01:07:50;;;;;;;;;;;14.30;99.90;;;;;;5094472;28;19919;-41
2023/06/09 01:10:22;;;;;;;;;;;14.30;99.90;;;;;;5094611;28;19909;-40
2023/06/09 01:13:00;;;;;;;;;;;14.30;99.90;;;;;;5093739;28;19908;-41
2023/06/09 01:15:30;;;;;;;;;;;14.30;99.90;;;;;;5081913;28;20383;-42
2023/06/09 01:17:58;;;;;;;;;;;14.30;99.90;;;;;;5090173;28;19922;-43
2023/06/09 01:20:46;;;;;;;;;;;14.30;99.90;;;;;;5078629;28;19913;-40
2023/06/09 01:23:32;;;;;;;;;;;14.20;99.90;;;;;;5073983;28;19916;-45
2023/06/09 01:25:59;;;;;;;;;;;14.20;99.90;;;;;;5062020;28;19995;-46
2023/06/09 01:28:26;;;;;;;;;;;14.20;99.90;;;;;;5089916;28;20003;-44
2023/06/09 01:30:52;;;;;;;;;;;14.10;99.90;;;;;;5094143;28;19944;-43
2023/06/09 01:33:19;;;;;;;;;;;14.10;99.90;;;;;;5093318;28;20065;-40
2023/06/09 01:35:45;;;;;;;;;;;14.10;99.90;;;;;;5093410;28;19924;-41
2023/06/09 01:38:12;;;;;;;;;;;14.00;99.90;;;;;;5073724;28;20007;-44
2023/06/09 01:40:37;;;;;;;;;;;14.00;99.90;;;;;;5092163;28;20343;-40
2023/06/09 01:43:04;;;;;;;;;;;14.00;99.90;;;;;;5094208;28;19951;-44
2023/06/09 01:45:29;;;;;;;;;;;14.00;99.90;;;;;;5093641;28;19914;-40
2023/06/09 01:47:55;;;;;;;;;;;14.00;99.90;;;;;;5092681;28;20010;-42
2023/06/09 01:50:39;;;;;;;;;;;14.00;99.90;;;;;;5093637;28;19913;-42
2023/06/09 01:53:06;;;;;;;;;;;14.00;99.90;;;;;;5093766;28;19908;-41
2023/06/09 01:55:37;;;;;;;;;;;13.90;99.90;;;;;;5092669;28;20393;-44
2023/06/09 01:58:19;;;;;;;;;;;13.90;99.90;;;;;;5083368;28;19916;-42
2023/06/09 02:00:46;;;;;;;;;;;14.00;99.90;;;;;;5092972;28;19958;-43
2023/06/09 02:03:14;;;;;;;;;;;13.90;99.90;;;;;;5093333;28;19912;-41
2023/06/09 02:05:42;;;;;;;;;;;13.90;99.90;;;;;;5093582;28;19955;-42
2023/06/09 02:08:08;;;;;;;;;;;13.90;99.90;;;;;;5092948;28;19908;-42
2023/06/09 02:10:34;;;;;;;;;;;13.90;99.90;;;;;;5093321;28;19908;-42
2023/06/09 02:13:10;;;;;;;;;;;13.90;99.90;;;;;;5093642;28;19964;-41
2023/06/09 02:15:35;;;;;;;;;;;13.80;99.90;;;;;;5092383;28;19923;-43
2023/06/09 02:18:01;;;;;;;;;;;13.80;99.90;;;;;;5093561;28;19913;-42
2023/06/09 02:20:27;;;;;;;;;;;13.80;99.90;;;;;;5092926;28;19912;-42
2023/06/09 02:22:52;;;;;;;;;;;13.80;99.90;;;;;;5092609;28;20437;-42
2023/06/09 02:25:18;;;;;;;;;;;13.80;99.90;;;;;;5093152;28;19908;-41
2023/06/09 02:27:43;;;;;;;;;;;13.80;99.90;;;;;;5092929;28;19931;-45
2023/06/09 02:30:09;;;;;;;;;;;13.70;99.90;;;;;;5092371;28;19990;-42
2023/06/09 02:32:36;;;;;;;;;;;13.70;99.90;;;;;;5092761;28;20278;-42
2023/06/09 02:35:01;;;;;;;;;;;13.80;99.90;;;;;;5092874;28;19924;-45
2023/06/09 02:37:29;;;;;;;;;;;13.70;99.90;;;;;;5091763;28;19969;-41
2023/06/09 02:39:55;;;;;;;;;;;13.70;99.90;;;;;;5093191;28;20002;-40
2023/06/09 02:42:20;;;;;;;;;;;13.70;99.90;;;;;;5092708;28;20393;-42
2023/06/09 02:44:48;;;;;;;;;;;13.70;99.90;;;;;;5091892;28;19912;-42
2023/06/09 02:47:14;;;;;;;;;;;13.70;99.90;;;;;;5092723;28;19915;-41
2023/06/09 02:49:40;;;;;;;;;;;13.70;99.90;;;;;;5092773;28;19909;-43
2023/06/09 02:52:05;;;;;;;;;;;13.70;99.90;;;;;;5091992;28;19913;-41
2023/06/09 02:54:31;;;;;;;;;;;13.70;99.90;;;;;;5092354;28;19912;-41
2023/06/09 02:56:56;;;;;;;;;;;13.70;99.90;;;;;;5092258;28;20264;-43
2023/06/09 02:59:22;;;;;;;;;;;13.70;99.90;;;;;;5091920;28;19916;-42
2023/06/09 03:01:48;;;;;;;;;;;13.70;99.90;;;;;;5092049;28;19919;-41
2023/06/09 03:04:13;;;;;;;;;;;13.60;99.90;;;;;;5091290;28;19912;-42
2023/06/09 03:06:43;;;;;;;;;;;13.70;99.90;;;;;;5092220;28;19908;-40
2023/06/09 03:09:10;;;;;;;;;;;13.70;99.90;;;;;;5092538;28;19916;-42
2023/06/09 03:11:36;;;;;;;;;;;13.70;99.90;;;;;;5091375;28;19926;-41
2023/06/09 03:14:02;;;;;;;;;;;13.60;99.90;;;;;;5092353;28;20281;-41
2023/06/09 03:16:30;;;;;;;;;;;13.60;99.90;;;;;;5092070;28;19916;-44
2023/06/09 03:18:56;;;;;;;;;;;13.60;99.90;;;;;;5091756;28;19908;-42
2023/06/09 03:21:23;;;;;;;;;;;13.60;99.90;;;;;;5091889;28;19912;-44
2023/06/09 03:23:48;;;;;;;;;;;13.60;99.90;;;;;;5092391;28;19915;-41
2023/06/09 03:26:14;;;;;;;;;;;13.60;99.90;;;;;;5091253;28;19908;-43
2023/06/09 03:28:39;;;;;;;;;;;13.60;99.90;;;;;;5092245;28;20366;-43
2023/06/09 03:31:06;;;;;;;;;;;13.60;99.90;;;;;;5092201;28;19908;-41
2023/06/09 03:33:31;;;;;;;;;;;13.60;99.90;;;;;;5090835;28;19935;-41
2023/06/09 03:35:57;;;;;;;;;;;13.60;99.90;;;;;;5091885;28;20367;-41
2023/06/09 03:38:23;;;;;;;;;;;13.60;99.90;;;;;;5092005;28;20457;-41
2023/06/09 03:40:48;;;;;;;;;;;13.60;99.90;;;;;;5091189;28;19908;-41
2023/06/09 03:43:14;;;;;;;;;;;13.60;99.90;;;;;;5091619;28;19912;-41
2023/06/09 03:45:40;;;;;;;;;;;13.60;99.90;;;;;;5092109;28;19908;-42
2023/06/09 03:48:06;;;;;;;;;;;13.60;99.90;;;;;;5091444;28;19909;-46
2023/06/09 03:50:32;;;;;;;;;;;13.60;99.90;;;;;;5092088;28;20042;-45
2023/06/09 03:52:57;;;;;;;;;;;13.60;99.90;;;;;;5091868;28;19953;-43
2023/06/09 03:55:24;;;;;;;;;;;13.60;99.90;;;;;;5090603;28;20049;-42
2023/06/09 03:57:50;;;;;;;;;;;13.60;99.90;;;;;;5091984;28;19909;-43
2023/06/09 04:00:16;;;;;;;;;;;13.70;99.90;;;;;;5086210;28;19920;-48
2023/06/09 04:02:41;;;;;;;;;;;13.70;99.90;;;;;;5087509;28;19998;-40
2023/06/09 04:05:07;;;;;;;;;;;13.70;99.90;;;;;;5091838;28;19959;-42
2023/06/09 04:07:32;;;;;;;;;;;13.70;99.90;;;;;;5080741;28;20359;-41
2023/06/09 04:09:58;;;;;;;;;;;13.70;99.90;;;;;;5083094;28;20273;-40
2023/06/09 04:12:23;;;;;;;;;;;13.70;99.90;;;;;;5091721;28;19908;-40
2023/06/09 04:14:50;;;;;;;;;;;13.70;99.90;;;;;;5080586;28;19908;-41
2023/06/09 04:17:15;;;;;;;;;;;13.80;99.90;;;;;;5071384;28;19971;-46
2023/06/09 04:19:41;;;;;;;;;;;13.80;99.90;;;;;;5075961;28;19944;-42
2023/06/09 04:22:07;;;;;;;;;;;13.80;99.90;;;;;;5094925;28;19908;-42
2023/06/09 04:24:33;;;;;;;;;;;13.80;99.90;;;;;;5095246;28;19912;-42
2023/06/09 04:27:00;;;;;;;;;;;13.80;99.90;;;;;;5095700;28;20340;-42
2023/06/09 04:29:25;;;;;;;;;;;13.80;99.90;;;;;;5094567;28;19954;-45
2023/06/09 04:31:58;;;;;;;;;;;13.80;99.90;;;;;;5095304;28;20317;-41
2023/06/09 04:34:25;;;;;;;;;;;13.90;99.90;;;;;;5095335;28;19953;-43
2023/06/09 04:36:52;;;;;;;;;;;13.90;99.90;;;;;;5094604;28;19943;-42
2023/06/09 04:39:19;;;;;;;;;;;13.90;99.90;;;;;;5095124;28;20350;-42
2023/06/09 04:41:47;;;;;;;;;;;13.90;99.90;;;;;;5095033;28;20377;-45
2023/06/09 04:44:13;;;;;;;;;;;14.00;99.90;;;;;;5082026;28;19916;-42
2023/06/09 04:46:39;;;;;;;;;;;14.00;99.90;;;;;;5074942;28;19935;-41
2023/06/09 04:49:08;;;;;;;;;;;14.00;99.90;;;;;;5074925;28;20021;-42
2023/06/09 04:51:46;;;;;;;;;;;14.00;99.90;;;;;;5089170;28;20394;-43
2023/06/09 04:54:13;;;;;;;;;;;14.00;99.90;;;;;;5095030;28;19919;-42
2023/06/09 04:56:38;;;;;;;;;;;14.00;99.90;;;;;;5092607;28;19923;-43
2023/06/09 04:59:04;;;;;;;;;;;14.00;99.90;;;;;;5092512;28;19908;-41
2023/06/09 05:01:30;;;;;;;;;;;14.10;99.90;;;;;;5092784;28;20394;-41
2023/06/09 05:03:55;;;;;;;;;;;14.10;99.90;;;;;;5094118;28;19915;-41
2023/06/09 05:06:21;;;;;;;;;;;14.10;99.90;;;;;;5094660;28;20006;-44
2023/06/09 05:08:47;;;;;;;;;;;14.20;99.90;;;;;;5089425;28;20438;-42
2023/06/09 05:11:12;;;;;;;;;;;14.20;99.90;;;;;;5073620;28;19999;-41
2023/06/09 05:13:38;;;;;;;;;;;14.20;99.90;;;;;;5074528;28;19916;-44
2023/06/09 05:16:04;;;;;;;;;;;14.30;99.90;;;;;;5074242;28;20433;-41
2023/06/09 05:18:30;;;;;;;;;;;14.30;99.90;;;;;;5076275;28;19908;-43
2023/06/09 05:20:56;;;;;;;;;;;14.30;99.90;;;;;;5093942;28;20267;-43
2023/06/09 05:23:21;;;;;;;;;;;14.30;99.90;;;;;;5094328;28;19996;-43
2023/06/09 05:25:47;;;;;;;;;;;14.40;99.90;;;;;;5093707;28;19955;-42
2023/06/09 05:28:12;;;;;;;;;;;14.50;99.90;;;;;;5093882;28;20370;-41
2023/06/09 05:30:38;;;;;;;;;;;14.50;99.90;;;;;;5094066;28;19916;-41
2023/06/09 05:33:03;;;;;;;;;;;14.50;99.90;;;;;;5093629;28;19969;-47
2023/06/09 05:35:29;;;;;;;;;;;14.60;99.90;;;;;;5093635;28;19920;-41
2023/06/09 05:37:55;;;;;;;;;;;14.60;99.90;;;;;;5094414;28;20066;-43
2023/06/09 05:40:20;;;;;;;;;;;14.60;99.90;;;;;;5092414;28;19913;-42
2023/06/09 05:42:46;;;;;;;;;;;14.60;99.90;;;;;;5094116;28;19908;-43
2023/06/09 05:45:11;;;;;;;;;;;14.70;99.90;;;;;;5094014;28;19908;-45
2023/06/09 05:47:37;;;;;;;;;;;14.70;99.90;;;;;;5093188;28;19908;-44
2023/06/09 05:50:02;;;;;;;;;;;14.80;99.90;;;;;;5090883;28;20406;-44
2023/06/09 05:52:28;;;;;;;;;;;14.80;99.90;;;;;;5088393;28;19955;-41
2023/06/09 05:54:53;;;;;;;;;;;14.80;99.90;;;;;;5093148;28;20003;-44
2023/06/09 05:57:20;;;;;;;;;;;14.90;99.90;;;;;;5087398;28;19974;-42
2023/06/09 05:59:45;;;;;;;;;;;15.00;99.90;;;;;;5089133;28;20359;-43
2023/06/09 06:02:13;;;;;;;;;;;15.00;99.90;;;;;;5091806;28;19922;-45
2023/06/09 06:04:38;;;;;;;;;;;15.10;99.90;;;;;;5093683;28;20006;-42
2023/06/09 06:07:04;;;;;;;;;;;15.20;99.90;;;;;;5087866;28;19994;-43
2023/06/09 06:09:30;;;;;;;;;;;15.20;99.90;;;;;;5079645;28;19915;-41
2023/06/09 06:11:55;;;;;;;;;;;15.30;99.90;;;;;;5093479;28;19912;-46
2023/06/09 06:14:21;;;;;;;;;;;15.30;99.90;;;;;;5090507;28;20367;-42
2023/06/09 06:16:46;;;;;;;;;;;15.30;99.90;;;;;;5068025;28;19924;-42
2023/06/09 06:19:12;;;;;;;;;;;15.40;99.90;;;;;;5090908;28;20325;-44
2023/06/09 06:21:41;;;;;;;;;;;15.40;99.90;;;;;;5083630;28;19913;-43
2023/06/09 06:24:06;;;;;;;;;;;15.50;99.90;;;;;;5073979;28;20363;-43
2023/06/09 06:26:32;;;;;;;;;;;15.60;99.90;;;;;;5090773;28;19919;-41
2023/06/09 06:28:57;;;;;;;;;;;15.60;99.90;;;;;;5092159;28;20014;-42
2023/06/09 06:31:22;;;;;;;;;;;15.70;99.90;;;;;;5093010;28;19916;-42
2023/06/09 06:33:48;;;;;;;;;;;15.70;99.90;;;;;;5093168;28;19964;-43
2023/06/09 06:36:14;;;;;;;;;;;15.80;99.90;;;;;;5086072;28;19943;-43
2023/06/09 06:38:40;;;;;;;;;;;15.90;99.90;;;;;;5083088;28;19955;-43
2023/06/09 06:41:05;;;;;;;;;;;15.90;99.90;;;;;;5080490;28;20038;-42
2023/06/09 06:43:31;;;;;;;;;;;16.00;99.90;;;;;;5071653;28;19912;-40
2023/06/09 06:45:56;;;;;;;;;;;16.00;99.90;;;;;;5079520;28;19916;-41
2023/06/09 06:48:21;;;;;;;;;;;16.10;99.90;;;;;;5092434;28;20401;-46
2023/06/09 06:50:47;;;;;;;;;;;16.10;99.90;;;;;;5091616;28;19916;-43
2023/06/09 06:53:12;;;;;;;;;;;16.20;99.90;;;;;;5074351;28;19912;-41
2023/06/09 06:55:38;;;;;;;;;;;16.30;99.90;;;;;;5090707;28;19971;-41
2023/06/09 06:58:03;;;;;;;;;;;16.40;99.90;;;;;;5092076;28;19908;-41
2023/06/09 07:00:29;;;;;;;;;;;16.50;99.90;;;;;;5089220;28;19964;-42
2023/06/09 07:02:55;;;;;;;;;;;16.50;99.90;;;;;;5082917;28;19916;-41
2023/06/09 07:05:21;;;;;;;;;;;16.60;99.90;;;;;;5074983;28;19909;-42
2023/06/09 07:07:47;;;;;;;;;;;16.70;99.90;;;;;;5072261;28;19908;-42
2023/06/09 07:10:13;;;;;;;;;;;16.80;99.90;;;;;;5081417;28;19924;-44
2023/06/09 07:12:39;;;;;;;;;;;16.80;99.90;;;;;;5092477;28;19941;-41
2023/06/09 07:15:05;;;;;;;;;;;16.90;99.90;;;;;;5092554;28;20415;-41
2023/06/09 07:17:30;;;;;;;;;;;16.90;99.90;;;;;;5086218;28;19920;-41
2023/06/09 07:19:56;;;;;;;;;;;17.00;99.90;;;;;;5081534;28;19978;-43
2023/06/09 07:22:21;;;;;;;;;;;17.10;99.90;;;;;;5072051;28;19908;-46
2023/06/09 07:24:47;;;;;;;;;;;17.20;99.90;;;;;;5071206;28;20018;-43
2023/06/09 07:27:12;;;;;;;;;;;17.30;99.90;;;;;;5071987;28;19912;-42
2023/06/09 07:29:41;;;;;;;;;;;17.40;99.90;;;;;;5082079;28;19934;-44
2023/06/09 07:32:07;;;;;;;;;;;17.50;99.90;;;;;;5079489;28;20019;-41
2023/06/09 07:34:33;;;;;;;;;;;17.60;99.90;;;;;;5091607;28;19950;-42
2023/06/09 07:37:00;;;;;;;;;;;17.60;99.90;;;;;;5085191;28;20362;-43
2023/06/09 07:39:26;;;;;;;;;;;17.70;99.90;;;;;;5078889;28;19920;-47
2023/06/09 07:41:51;;;;;;;;;;;17.80;99.90;;;;;;5092110;28;20003;-42
2023/06/09 07:44:17;;;;;;;;;;;17.90;99.90;;;;;;5075178;28;19908;-42
2023/06/09 07:46:42;;;;;;;;;;;18.00;99.90;;;;;;5071319;28;20382;-42
2023/06/09 07:49:08;;;;;;;;;;;18.10;99.90;;;;;;5071023;28;20393;-43
2023/06/09 07:51:37;;;;;;;;;;;18.10;99.90;;;;;;5079278;28;19909;-43
2023/06/09 07:54:04;;;;;;;;;;;18.30;99.90;;;;;;5096333;28;20375;-42
2023/06/09 07:56:29;;;;;;;;;;;18.30;99.90;;;;;;5095885;28;20015;-43
2023/06/09 07:58:55;;;;;;;;;;;18.40;99.90;;;;;;5102965;28;19959;-41
2023/06/09 08:01:20;;;;;;;;;;;18.50;99.90;;;;;;5091609;28;20034;-44
2023/06/09 08:03:46;;;;;;;;;;;18.60;99.90;;;;;;5075853;28;19908;-42
2023/06/09 08:06:11;;;;;;;;;;;18.70;99.90;;;;;;5075661;28;19916;-44
2023/06/09 08:08:37;;;;;;;;;;;18.80;99.90;;;;;;5081363;28;19912;-43
2023/06/09 08:11:02;;;;;;;;;;;18.90;99.90;;;;;;5096183;28;19908;-44
2023/06/09 08:13:28;;;;;;;;;;;19.00;99.90;;;;;;5094891;28;19914;-43
2023/06/09 08:15:53;;;;;;;;;;;19.10;99.90;;;;;;5093690;28;19927;-42
2023/06/09 08:18:19;;;;;;;;;;;19.20;99.90;;;;;;5090599;28;19908;-43
2023/06/09 08:20:44;;;;;;;;;;;19.30;99.90;;;;;;5081096;28;20354;-42
2023/06/09 08:23:10;;;;;;;;;;;19.40;99.90;;;;;;5075596;28;19916;-41
2023/06/09 08:25:36;;;;;;;;;;;19.50;99.90;;;;;;5091486;28;19935;-42
2023/06/09 08:28:02;;;;;;;;;;;19.60;99.90;;;;;;5086935;28;19994;-42
2023/06/09 08:30:27;;;;;;;;;;;19.70;99.90;;;;;;5097794;28;20019;-46
2023/06/09 08:32:53;;;;;;;;;;;19.80;99.90;;;;;;5095416;28;19934;-43
2023/06/09 08:35:20;;;;;;;;;;;19.90;99.90;;;;;;5085347;28;19927;-42
2023/06/09 08:37:47;;;;;;;;;;;20.10;99.90;;;;;;5062141;28;20379;-45
2023/06/09 08:40:13;;;;;;;;;;;20.20;99.90;;;;;;5088882;28;19942;-42
2023/06/09 08:42:39;;;;;;;;;;;20.40;99.90;;;;;;5087991;28;20356;-42
2023/06/09 08:45:05;;;;;;;;;;;20.40;99.90;;;;;;5093225;28;19916;-41
2023/06/09 08:47:34;;;;;;;;;;;20.50;99.90;;;;;;5087580;28;19916;-42
2023/06/09 08:50:02;;;;;;;;;;;20.70;99.90;;;;;;5078586;28;19920;-42
2023/06/09 08:52:28;;;;;;;;;;;20.80;99.90;;;;;;5084752;28;19916;-46
2023/06/09 08:54:55;;;;;;;;;;;20.90;99.90;;;;;;5087650;28;19912;-44
2023/06/09 08:57:21;;;;;;;;;;;21.00;99.90;;;;;;5092625;28;19920;-44
2023/06/09 08:59:47;;;;;;;;;;;21.20;99.90;;;;;;5092681;28;19915;-42
2023/06/09 09:02:12;;;;;;;;;;;21.30;99.90;;;;;;5081466;28;19955;-42
2023/06/09 09:04:38;;;;;;;;;;;21.40;99.90;;;;;;5072182;28;19952;-43
2023/06/09 09:07:08;;;;;;;;;;;21.60;99.90;;;;;;5092611;28;19913;-43
2023/06/09 09:09:33;;;;;;;;;;;21.70;99.90;;;;;;5080395;28;19955;-43
2023/06/09 09:11:59;;;;;;;;;;;21.80;99.90;;;;;;5082011;28;20374;-44
2023/06/09 09:14:25;;;;;;;;;;;22.00;99.90;;;;;;5092564;28;19908;-44
2023/06/09 09:16:50;;;;;;;;;;;22.10;99.90;;;;;;5087621;28;19924;-46
2023/06/09 09:19:26;;;;;;;;;;;22.20;99.90;;;;;;5092396;28;19935;-43
2023/06/09 09:21:53;;;;;;;;;;;22.30;99.90;;;;;;5092345;28;19912;-42
2023/06/09 09:24:19;;;;;;;;;;;22.40;99.90;;;;;;5091310;28;19978;-42
2023/06/09 09:26:44;;;;;;;;;;;22.60;99.90;;;;;;5092341;28;19962;-45
2023/06/09 09:29:10;;;;;;;;;;;22.70;99.90;;;;;;5090272;28;20371;-42
2023/06/09 09:31:38;;;;;;;;;;;22.80;99.90;;;;;;5085854;28;19912;-42
2023/06/09 09:34:04;;;;;;;;;;;22.90;99.90;;;;;;5090325;28;19967;-42
2023/06/09 09:36:29;;;;;;;;;;;23.00;99.90;;;;;;5091849;28;19956;-43
2023/06/09 09:38:56;;;;;;;;;;;23.10;99.90;;;;;;5091500;28;19909;-45
2023/06/09 09:41:22;;;;;;;;;;;23.30;99.90;;;;;;5089461;28;19919;-43
2023/06/09 09:43:47;;;;;;;;;;;23.40;99.90;;;;;;5087131;28;19908;-43
2023/06/09 09:46:18;;;;;;;;;;;23.50;99.90;;;;;;5080621;28;19916;-44
2023/06/09 09:48:44;;;;;;;;;;;23.70;99.90;;;;;;5072854;28;19939;-42
2023/06/09 09:51:09;;;;;;;;;;;23.80;99.90;;;;;;5091614;28;20294;-44
2023/06/09 09:53:35;;;;;;;;;;;23.90;99.90;;;;;;5083816;28;19912;-44
2023/06/09 09:56:01;;;;;;;;;;;24.00;99.90;;;;;;5079436;28;19924;-42
2023/06/09 09:58:29;;;;;;;;;;;24.10;99.90;;;;;;5089147;28;19923;-47
2023/06/09 10:00:57;;;;;;;;;;;24.20;99.90;;;;;;5091419;28;19908;-47
2023/06/09 10:03:23;;;;;;;;;;;24.20;99.70;;;;;;5091802;28;19935;-43
2023/06/09 10:05:49;;;;;;;;;;;24.40;99.60;;;;;;5091625;28;19912;-42
2023/06/09 10:08:18;;;;;;;;;;;24.50;99.80;;;;;;5090478;28;19920;-47
2023/06/09 10:10:43;;;;;;;;;;;24.50;99.30;;;;;;5091861;28;19962;-48
2023/06/09 10:13:09;;;;;;;;;;;24.60;98.30;;;;;;5092345;28;20372;-44
2023/06/09 10:15:34;;;;;;;;;;;24.70;98.30;;;;;;5091185;28;19927;-44
2023/06/09 10:18:00;;;;;;;;;;;24.80;98.80;;;;;;5092156;28;20010;-42
2023/06/09 10:20:26;;;;;;;;;;;24.90;98.30;;;;;;5091600;28;19979;-47
2023/06/09 10:22:52;;;;;;;;;;;24.90;97.60;;;;;;5092177;28;19985;-45
2023/06/09 10:25:18;;;;;;;;;;;25.00;98.30;;;;;;5091922;28;20343;-43
2023/06/09 10:27:44;;;;;;;;;;;25.10;97.50;;;;;;5091283;28;19916;-43
2023/06/09 10:30:12;;;;;;;;;;;25.20;96.60;;;;;;5092283;28;20013;-54
2023/06/09 10:32:40;;;;;;;;;;;25.30;95.70;;;;;;5092050;28;19908;-44
2023/06/09 10:35:06;;;;;;;;;;;25.40;96.40;;;;;;5091600;28;19927;-43
2023/06/09 10:37:33;;;;;;;;;;;25.50;95.40;;;;;;5091852;28;19932;-45
2023/06/09 10:40:18;;;;;;;;;;;25.60;95.40;;;;;;5092170;28;19912;-44
2023/06/09 10:43:00;;;;;;;;;;;25.70;96.50;;;;;;5091456;28;19920;-43
2023/06/09 10:45:46;;;;;;;;;;;25.70;94.80;;;;;;5091274;28;19912;-48
2023/06/09 10:48:11;;;;;;;;;;;25.90;94.90;;;;;;5091214;28;19908;-45
2023/06/09 10:50:38;;;;;;;;;;;26.00;93.80;;;;;;5091486;28;19912;-43
2023/06/09 10:53:13;;;;;;;;;;;26.10;93.50;;;;;;5091913;28;20351;-44
2023/06/09 10:55:38;;;;;;;;;;;26.10;94.20;;;;;;5091356;28;19924;-44
2023/06/09 10:58:25;;;;;;;;;;;26.20;93.30;;;;;;5092014;28;19908;-43
2023/06/09 11:01:03;;;;;;;;;;;26.20;92.20;;;;;;5091388;28;19912;-44
2023/06/09 11:03:30;;;;;;;;;;;26.30;92.50;;;;;;5091036;28;19908;-47
2023/06/09 11:06:00;;;;;;;;;;;26.40;92.70;;;;;;5091767;28;19969;-44
2023/06/09 11:08:25;;;;;;;;;;;26.50;91.70;;;;;;5091502;28;19913;-43
2023/06/09 11:10:51;;;;;;;;;;;26.60;92.00;;;;;;5090639;28;19996;-46
2023/06/09 11:13:35;;;;;;;;;;;26.70;91.70;;;;;;5091191;28;19908;-45
2023/06/09 11:16:01;;;;;;;;;;;26.80;91.60;;;;;;5091734;28;20391;-45
2023/06/09 11:18:26;;;;;;;;;;;26.90;91.40;;;;;;5090598;28;19927;-44
2023/06/09 11:21:11;;;;;;;;;;;26.90;90.50;;;;;;5091589;28;19911;-45
2023/06/09 11:23:57;;;;;;;;;;;27.00;90.70;;;;;;5090927;28;19959;-45
2023/06/09 11:26:23;;;;;;;;;;;27.00;91.30;;;;;;5109464;28;19916;-44
2023/06/09 11:28:48;;;;;;;;;;;27.10;90.40;;;;;;5110762;28;19977;-45
2023/06/09 11:31:15;;;;;;;;;;;27.10;89.90;;;;;;5110002;28;19950;-43
2023/06/09 11:33:40;;;;;;;;;;;27.10;89.20;;;;;;5110806;28;19915;-43
2023/06/09 11:36:06;;;;;;;;;;;27.10;89.40;;;;;;5110508;28;19927;-43
2023/06/09 11:38:34;;;;;;;;;;;27.20;87.30;;;;;;5110106;28;20298;-44
2023/06/09 11:41:00;;;;;;;;;;;27.10;87.90;;;;;;5111763;28;19966;-43
2023/06/09 11:43:25;;;;;;;;;;;27.20;88.60;;;;;;5110740;28;19999;-42
2023/06/09 11:45:59;;;;;;;;;;;27.30;88.50;;;;;;5110155;28;19974;-44
2023/06/09 11:48:24;;;;;;;;;;;27.30;86.10;;;;;;5110799;28;19915;-42
2023/06/09 11:50:50;;;;;;;;;;;27.30;84.60;;;;;;5111608;28;19912;-43
2023/06/09 11:53:16;;;;;;;;;;;27.20;85.40;;;;;;5110383;28;20378;-43
2023/06/09 11:55:42;;;;;;;;;;;27.30;86.90;;;;;;5110882;28;19974;-44
2023/06/09 11:58:09;;;;;;;;;;;27.50;87.00;;;;;;5110509;28;19908;-43
2023/06/09 12:00:42;;;;;;;;;;;27.60;85.60;;;;;;5109563;28;19928;-44
2023/06/09 12:03:07;;;;;;;;;;;27.70;84.90;;;;;;5110729;28;20021;-44
2023/06/09 12:05:33;;;;;;;;;;;27.80;84.90;;;;;;5110348;28;19911;-46
2023/06/09 12:08:00;;;;;;;;;;;27.80;82.40;;;;;;5110314;28;19912;-43
2023/06/09 12:10:29;;;;;;;;;;;27.80;80.20;;;;;;5110318;28;20362;-43
2023/06/09 12:12:56;;;;;;;;;;;27.80;81.50;;;;;;5110755;28;19915;-43
2023/06/09 12:15:22;;;;;;;;;;;27.80;80.80;;;;;;5110649;28;19908;-43
2023/06/09 12:17:49;;;;;;;;;;;28.00;84.20;;;;;;5111081;28;19923;-45
2023/06/09 12:20:30;;;;;;;;;;;28.10;82.40;;;;;;5110253;28;20239;-45
2023/06/09 12:22:57;;;;;;;;;;;28.30;82.50;;;;;;5111381;28;19919;-44
2023/06/09 12:25:25;;;;;;;;;;;28.40;81.40;;;;;;5110828;28;20539;-44
2023/06/09 12:27:51;;;;;;;;;;;28.50;81.60;;;;;;5110120;28;19911;-48
2023/06/09 12:30:36;;;;;;;;;;;28.60;81.20;;;;;;5110501;28;19954;-46
2023/06/09 12:33:05;;;;;;;;;;;28.80;78.50;;;;;;5110939;28;19918;-44
2023/06/09 12:35:37;;;;;;;;;;;28.90;78.70;;;;;;5109613;28;19923;-44
2023/06/09 12:38:29;;;;;;;;;;;29.10;78.50;;;;;;5110532;28;19961;-46
2023/06/09 12:40:56;;;;;;;;;;;29.30;76.90;;;;;;5108679;28;19922;-44
2023/06/09 12:43:22;;;;;;;;;;;29.50;75.30;;;;;;5114625;28;20325;-44
2023/06/09 12:45:49;;;;;;;;;;;29.70;77.80;;;;;;5114957;28;19908;-45
2023/06/09 12:48:16;;;;;;;;;;;30.00;75.00;;;;;;5113998;28;19950;-43
2023/06/09 12:50:43;;;;;;;;;;;30.10;75.40;;;;;;5114512;28;19912;-45
2023/06/09 12:53:09;;;;;;;;;;;30.10;73.10;;;;;;5114715;28;20310;-43
2023/06/09 12:55:35;;;;;;;;;;;30.30;71.80;;;;;;5113840;28;19912;-44
2023/06/09 12:58:00;;;;;;;;;;;30.00;71.30;;;;;;5114653;28;19915;-43
2023/06/09 13:00:26;;;;;;;;;;;29.90;70.20;;;;;;5114364;28;19923;-44
2023/06/09 13:02:51;;;;;;;;;;;30.10;72.60;;;;;;5114006;28;20384;-43
2023/06/09 13:05:17;;;;;;;;;;;30.30;67.40;;;;;;5114355;28;19968;-44
2023/06/09 13:07:43;;;;;;;;;;;30.60;71.00;;;;;;5114271;28;19949;-43
2023/06/09 13:10:09;;;;;;;;;;;30.90;70.60;;;;;;5113297;28;19915;-44
2023/06/09 13:12:35;;;;;;;;;;;31.10;70.60;;;;;;5113347;28;19908;-46
2023/06/09 13:15:01;;;;;;;;;;;31.00;67.50;;;;;;5112423;28;20324;-44
2023/06/09 13:17:27;;;;;;;;;;;31.10;66.90;;;;;;5112536;28;19989;-44
2023/06/09 13:19:52;;;;;;;;;;;31.40;66.80;;;;;;5113917;28;19908;-43
2023/06/09 13:22:18;;;;;;;;;;;31.70;68.30;;;;;;5112832;28;20362;-49
2023/06/09 13:24:43;;;;;;;;;;;31.90;65.90;;;;;;5112761;28;19919;-45
2023/06/09 13:27:09;;;;;;;;;;;31.90;63.90;;;;;;5114097;28;20609;-44
2023/06/09 13:29:35;;;;;;;;;;;32.20;65.50;;;;;;5114092;28;19908;-44
2023/06/09 13:32:00;;;;;;;;;;;32.40;65.40;;;;;;5113341;28;19908;-44
2023/06/09 13:34:26;;;;;;;;;;;32.40;63.80;;;;;;5113594;28;19992;-45
2023/06/09 13:36:52;;;;;;;;;;;32.30;62.90;;;;;;5113892;28;20014;-44
2023/06/09 13:39:18;;;;;;;;;;;32.40;63.40;;;;;;5113176;28;19915;-44
2023/06/09 13:41:43;;;;;;;;;;;32.70;62.30;;;;;;5114056;28;19930;-43
2023/06/09 13:44:09;;;;;;;;;;;32.90;62.50;;;;;;5112659;28;19907;-45
2023/06/09 13:46:34;;;;;;;;;;;32.80;61.30;;;;;;5112130;28;19908;-44
2023/06/09 13:49:03;;;;;;;;;;;32.20;58.90;;;;;;5113624;28;19907;-45
2023/06/09 13:51:29;;;;;;;;;;;32.20;59.80;;;;;;5112915;28;19915;-45
2023/06/09 13:53:54;;;;;;;;;;;32.40;59.80;;;;;;5113109;28;19907;-44
2023/06/09 13:56:20;;;;;;;;;;;32.40;61.20;;;;;;5113060;28;19968;-44
2023/06/09 13:58:46;;;;;;;;;;;31.90;61.40;;;;;;5113026;28;19915;-45
2023/06/09 14:01:12;;;;;;;;;;;31.60;61.60;;;;;;5112769;28;19935;-43
2023/06/09 14:03:37;;;;;;;;;;;31.80;61.90;;;;;;5113392;28;19914;-42
2023/06/09 14:06:03;;;;;;;;;;;32.10;61.70;;;;;;5112628;28;19991;-43
2023/06/09 14:08:29;;;;;;;;;;;32.40;61.10;;;;;;5113404;28;19908;-43
2023/06/09 14:10:54;;;;;;;;;;;32.30;60.60;;;;;;5113225;28;20010;-44
2023/06/09 14:13:20;;;;;;;;;;;32.30;60.50;;;;;;5112368;28;19908;-43
2023/06/09 14:15:46;;;;;;;;;;;32.40;60.30;;;;;;5113145;28;19919;-44